sensor_id;sensor_type;location;lat;lon;timestamp;pressure;altitude;pressure_sealevel;temperature;humidity
12987;BME280;58897;51.960;5.582;2022-10-31T00:00:47;101751.47;;;13.84;100.00
12987;BME280;58897;51.960;5.582;2022-10-31T00:03:14;101755.13;;;13.75;100.00
12987;BME280;58897;51.960;5.582;2022-10-31T00:05:42;101750.69;;;14.00;100.00
12987;BME280;58897;51.960;5.582;2022-10-31T00:08:09;101747.38;;;13.88;100.00
12987;BME280;58897;51.960;5.582;2022-10-31T00:10:43;101747.91;;;13.92;100.00
12987;BME280;58897;51.960;5.582;2022-10-31T00:13:10;101748.34;;;13.79;100.00
12987;BME280;58897;51.960;5.582;2022-10-31T00:15:38;101751.63;;;13.91;100.00
12987;BME280;58897;51.960;5.582;2022-10-31T00:18:06;101745.53;;;13.89;100.00
12987;BME280;58897;51.960;5.582;2022-10-31T00:20:33;101749.25;;;13.88;100.00
12987;BME280;58897;51.960;5.582;2022-10-31T00:23:00;101752.63;;;13.90;100.00
12987;BME280;58897;51.960;5.582;2022-10-31T00:25:28;101748.03;;;13.82;100.00
12987;BME280;58897;51.960;5.582;2022-10-31T00:27:55;101747.03;;;13.83;100.00
12987;BME280;58897;51.960;5.582;2022-10-31T00:30:22;101746.69;;;13.86;100.00
12987;BME280;58897;51.960;5.582;2022-10-31T00:32:48;101749.53;;;13.77;100.00
12987;BME280;58897;51.960;5.582;2022-10-31T00:35:15;101744.81;;;13.79;100.00
12987;BME280;58897;51.960;5.582;2022-10-31T00:37:41;101748.19;;;13.81;100.00
12987;BME280;58897;51.960;5.582;2022-10-31T00:40:08;101760.06;;;13.80;100.00
12987;BME280;58897;51.960;5.582;2022-10-31T00:42:35;101757.84;;;13.75;100.00
12987;BME280;58897;51.960;5.582;2022-10-31T00:45:01;101756.13;;;13.74;100.00
12987;BME280;58897;51.960;5.582;2022-10-31T00:47:27;101760.88;;;13.72;100.00
12987;BME280;58897;51.960;5.582;2022-10-31T00:49:54;101763.81;;;13.79;100.00
12987;BME280;58897;51.960;5.582;2022-10-31T00:52:20;101768.38;;;13.78;100.00
12987;BME280;58897;51.960;5.582;2022-10-31T00:54:47;101768.38;;;13.78;100.00
12987;BME280;58897;51.960;5.582;2022-10-31T00:57:13;101769.28;;;13.61;100.00
12987;BME280;58897;51.960;5.582;2022-10-31T00:59:39;101767.59;;;13.60;100.00
12987;BME280;58897;51.960;5.582;2022-10-31T01:02:06;101755.63;;;13.71;100.00
12987;BME280;58897;51.960;5.582;2022-10-31T01:04:32;101761.19;;;13.69;100.00
12987;BME280;58897;51.960;5.582;2022-10-31T01:06:59;101759.19;;;13.71;100.00
12987;BME280;58897;51.960;5.582;2022-10-31T01:09:25;101762.84;;;13.62;100.00
12987;BME280;58897;51.960;5.582;2022-10-31T01:11:52;101754.06;;;13.68;100.00
12987;BME280;58897;51.960;5.582;2022-10-31T01:14:18;101761.56;;;13.74;100.00
12987;BME280;58897;51.960;5.582;2022-10-31T01:16:44;101757.13;;;13.65;100.00
12987;BME280;58897;51.960;5.582;2022-10-31T01:19:11;101759.81;;;13.65;100.00
12987;BME280;58897;51.960;5.582;2022-10-31T01:21:37;101752.84;;;13.63;100.00
12987;BME280;58897;51.960;5.582;2022-10-31T01:24:04;101755.03;;;13.59;100.00
12987;BME280;58897;51.960;5.582;2022-10-31T01:26:32;101748.22;;;13.55;100.00
12987;BME280;58897;51.960;5.582;2022-10-31T01:29:07;101747.16;;;13.48;100.00
12987;BME280;58897;51.960;5.582;2022-10-31T01:31:36;101739.91;;;13.56;100.00
12987;BME280;58897;51.960;5.582;2022-10-31T01:34:04;101740.56;;;13.50;100.00
12987;BME280;58897;51.960;5.582;2022-10-31T01:36:35;101730.16;;;13.72;100.00
12987;BME280;58897;51.960;5.582;2022-10-31T01:39:08;101730.88;;;13.48;100.00
12987;BME280;58897;51.960;5.582;2022-10-31T01:41:37;101721.53;;;13.50;100.00
12987;BME280;58897;51.960;5.582;2022-10-31T01:47:01;101724.16;;;13.60;100.00
12987;BME280;58897;51.960;5.582;2022-10-31T01:49:40;101732.69;;;13.65;100.00
12987;BME280;58897;51.960;5.582;2022-10-31T01:52:20;101728.78;;;13.68;100.00
12987;BME280;58897;51.960;5.582;2022-10-31T01:55:02;101730.31;;;13.70;100.00
12987;BME280;58897;51.960;5.582;2022-10-31T01:57:30;101730.59;;;13.59;100.00
12987;BME280;58897;51.960;5.582;2022-10-31T02:00:03;101731.13;;;13.63;100.00
12987;BME280;58897;51.960;5.582;2022-10-31T02:02:31;101728.91;;;13.58;100.00
12987;BME280;58897;51.960;5.582;2022-10-31T02:05:00;101735.78;;;13.44;100.00
12987;BME280;58897;51.960;5.582;2022-10-31T02:10:06;101738.19;;;13.22;100.00
12987;BME280;58897;51.960;5.582;2022-10-31T02:12:33;101744.81;;;13.27;100.00
12987;BME280;58897;51.960;5.582;2022-10-31T02:15:03;101738.19;;;13.22;100.00
12987;BME280;58897;51.960;5.582;2022-10-31T02:17:31;101734.81;;;13.28;100.00
12987;BME280;58897;51.960;5.582;2022-10-31T02:20:14;101736.00;;;13.25;100.00
12987;BME280;58897;51.960;5.582;2022-10-31T02:25:56;101733.78;;;13.03;100.00
12987;BME280;58897;51.960;5.582;2022-10-31T02:28:40;101731.13;;;12.93;100.00
12987;BME280;58897;51.960;5.582;2022-10-31T02:33:51;101733.69;;;12.95;100.00
12987;BME280;58897;51.960;5.582;2022-10-31T02:36:36;101734.50;;;12.87;100.00
12987;BME280;58897;51.960;5.582;2022-10-31T02:44:46;101736.16;;;13.06;100.00
12987;BME280;58897;51.960;5.582;2022-10-31T02:47:17;101737.78;;;12.99;100.00
12987;BME280;58897;51.960;5.582;2022-10-31T02:49:57;101729.88;;;13.06;100.00
12987;BME280;58897;51.960;5.582;2022-10-31T02:52:27;101734.06;;;13.00;100.00
12987;BME280;58897;51.960;5.582;2022-10-31T02:54:54;101727.59;;;12.93;100.00
12987;BME280;58897;51.960;5.582;2022-10-31T02:59:53;101737.09;;;12.97;100.00
12987;BME280;58897;51.960;5.582;2022-10-31T03:05:27;101736.66;;;12.84;100.00
12987;BME280;58897;51.960;5.582;2022-10-31T03:10:47;101731.91;;;12.86;100.00
12987;BME280;58897;51.960;5.582;2022-10-31T03:18:43;101739.44;;;12.74;100.00
12987;BME280;58897;51.960;5.582;2022-10-31T03:21:20;101735.81;;;12.66;100.00
12987;BME280;58897;51.960;5.582;2022-10-31T03:23:50;101733.94;;;12.66;100.00
12987;BME280;58897;51.960;5.582;2022-10-31T03:26:17;101731.84;;;12.78;100.00
12987;BME280;58897;51.960;5.582;2022-10-31T03:31:18;101732.78;;;12.69;100.00
12987;BME280;58897;51.960;5.582;2022-10-31T03:33:47;101735.56;;;12.77;100.00
12987;BME280;58897;51.960;5.582;2022-10-31T03:36:16;101734.56;;;12.78;100.00
12987;BME280;58897;51.960;5.582;2022-10-31T03:38:45;101738.44;;;12.75;100.00
12987;BME280;58897;51.960;5.582;2022-10-31T03:41:19;101751.47;;;12.72;100.00
12987;BME280;58897;51.960;5.582;2022-10-31T03:43:55;101743.31;;;12.72;100.00
12987;BME280;58897;51.960;5.582;2022-10-31T03:46:23;101740.22;;;12.67;100.00
12987;BME280;58897;51.960;5.582;2022-10-31T03:48:50;101740.63;;;12.72;100.00
12987;BME280;58897;51.960;5.582;2022-10-31T03:51:26;101745.97;;;12.64;100.00
12987;BME280;58897;51.960;5.582;2022-10-31T03:56:47;101741.53;;;12.63;100.00
12987;BME280;58897;51.960;5.582;2022-10-31T03:59:24;101740.28;;;12.57;100.00
12987;BME280;58897;51.960;5.582;2022-10-31T04:01:57;101739.44;;;12.74;100.00
12987;BME280;58897;51.960;5.582;2022-10-31T04:04:26;101735.19;;;12.72;100.00
12987;BME280;58897;51.960;5.582;2022-10-31T04:06:54;101740.22;;;12.67;100.00
12987;BME280;58897;51.960;5.582;2022-10-31T04:09:24;101750.59;;;12.54;100.00
12987;BME280;58897;51.960;5.582;2022-10-31T04:11:54;101749.09;;;12.59;100.00
12987;BME280;58897;51.960;5.582;2022-10-31T04:14:24;101743.00;;;12.39;100.00
12987;BME280;58897;51.960;5.582;2022-10-31T04:16:51;101740.75;;;12.53;100.00
12987;BME280;58897;51.960;5.582;2022-10-31T04:19:17;101734.09;;;12.47;100.00
12987;BME280;58897;51.960;5.582;2022-10-31T04:21:44;101737.19;;;12.52;100.00
12987;BME280;58897;51.960;5.582;2022-10-31T04:24:11;101736.13;;;12.45;100.00
12987;BME280;58897;51.960;5.582;2022-10-31T04:26:37;101737.03;;;12.36;100.00
12987;BME280;58897;51.960;5.582;2022-10-31T04:29:04;101739.81;;;12.44;100.00
12987;BME280;58897;51.960;5.582;2022-10-31T04:31:30;101739.91;;;12.34;100.00
12987;BME280;58897;51.960;5.582;2022-10-31T04:33:56;101735.13;;;12.46;100.00
12987;BME280;58897;51.960;5.582;2022-10-31T04:36:23;101730.38;;;12.48;100.00
12987;BME280;58897;51.960;5.582;2022-10-31T04:38:49;101726.81;;;12.48;100.00
12987;BME280;58897;51.960;5.582;2022-10-31T04:41:15;101722.66;;;12.53;100.00
12987;BME280;58897;51.960;5.582;2022-10-31T04:43:42;101726.75;;;12.57;100.00
12987;BME280;58897;51.960;5.582;2022-10-31T04:46:08;101730.13;;;12.59;100.00
12987;BME280;58897;51.960;5.582;2022-10-31T04:48:35;101727.91;;;12.55;100.00
12987;BME280;58897;51.960;5.582;2022-10-31T04:51:02;101726.44;;;12.60;100.00
12987;BME280;58897;51.960;5.582;2022-10-31T04:53:29;101736.28;;;12.61;100.00
12987;BME280;58897;51.960;5.582;2022-10-31T04:55:58;101733.97;;;12.49;100.00
12987;BME280;58897;51.960;5.582;2022-10-31T04:58:25;101735.16;;;12.54;100.00
12987;BME280;58897;51.960;5.582;2022-10-31T05:00:53;101739.69;;;12.46;100.00
12987;BME280;58897;51.960;5.582;2022-10-31T05:03:19;101732.53;;;12.62;100.00
12987;BME280;58897;51.960;5.582;2022-10-31T05:05:46;101734.19;;;12.55;100.00
12987;BME280;58897;51.960;5.582;2022-10-31T05:08:14;101737.81;;;12.64;100.00
12987;BME280;58897;51.960;5.582;2022-10-31T05:10:40;101729.06;;;12.52;100.00
12987;BME280;58897;51.960;5.582;2022-10-31T05:13:07;101730.09;;;12.51;100.00
12987;BME280;58897;51.960;5.582;2022-10-31T05:15:34;101727.44;;;12.59;100.00
12987;BME280;58897;51.960;5.582;2022-10-31T05:18:01;101723.13;;;12.49;100.00
12987;BME280;58897;51.960;5.582;2022-10-31T05:20:29;101713.34;;;12.56;100.00
12987;BME280;58897;51.960;5.582;2022-10-31T05:22:57;101713.09;;;12.31;100.00
12987;BME280;58897;51.960;5.582;2022-10-31T05:25:26;101710.69;;;12.28;100.00
12987;BME280;58897;51.960;5.582;2022-10-31T05:27:54;101715.22;;;12.37;100.00
12987;BME280;58897;51.960;5.582;2022-10-31T05:30:23;101713.41;;;12.28;100.00
12987;BME280;58897;51.960;5.582;2022-10-31T05:32:50;101715.72;;;12.23;100.00
12987;BME280;58897;51.960;5.582;2022-10-31T05:35:34;101720.13;;;12.07;100.00
12987;BME280;58897;51.960;5.582;2022-10-31T05:38:01;101722.97;;;12.05;100.00
12987;BME280;58897;51.960;5.582;2022-10-31T05:40:28;101725.75;;;11.96;100.00
12987;BME280;58897;51.960;5.582;2022-10-31T05:42:55;101723.94;;;12.31;100.00
12987;BME280;58897;51.960;5.582;2022-10-31T05:45:24;101713.69;;;12.25;100.00
12987;BME280;58897;51.960;5.582;2022-10-31T05:47:58;101712.09;;;12.32;100.00
12987;BME280;58897;51.960;5.582;2022-10-31T05:50:28;101712.50;;;12.37;100.00
12987;BME280;58897;51.960;5.582;2022-10-31T05:53:03;101711.09;;;12.33;100.00
12987;BME280;58897;51.960;5.582;2022-10-31T05:55:30;101713.69;;;12.25;100.00
12987;BME280;58897;51.960;5.582;2022-10-31T05:57:57;101715.88;;;12.22;100.00
12987;BME280;58897;51.960;5.582;2022-10-31T06:00:25;101707.78;;;12.39;100.00
12987;BME280;58897;51.960;5.582;2022-10-31T06:03:03;101713.38;;;12.11;100.00
12987;BME280;58897;51.960;5.582;2022-10-31T06:05:30;101707.06;;;12.20;100.00
12987;BME280;58897;51.960;5.582;2022-10-31T06:07:57;101702.47;;;12.20;100.00
12987;BME280;58897;51.960;5.582;2022-10-31T06:10:25;101701.56;;;12.12;100.00
12987;BME280;58897;51.960;5.582;2022-10-31T06:12:52;101706.91;;;12.21;100.00
12987;BME280;58897;51.960;5.582;2022-10-31T06:15:18;101703.97;;;12.15;100.00
12987;BME280;58897;51.960;5.582;2022-10-31T06:18:04;101710.00;;;12.09;100.00
12987;BME280;58897;51.960;5.582;2022-10-31T06:20:32;101701.56;;;12.29;100.00
12987;BME280;58897;51.960;5.582;2022-10-31T06:22:59;101701.94;;;12.17;100.00
12987;BME280;58897;51.960;5.582;2022-10-31T06:25:26;101704.66;;;12.34;100.00
12987;BME280;58897;51.960;5.582;2022-10-31T06:27:52;101705.53;;;12.17;100.00
12987;BME280;58897;51.960;5.582;2022-10-31T06:30:19;101706.91;;;12.21;100.00
12987;BME280;58897;51.960;5.582;2022-10-31T06:32:45;101709.69;;;12.29;100.00
12987;BME280;58897;51.960;5.582;2022-10-31T06:35:12;101707.59;;;12.23;100.00
12987;BME280;58897;51.960;5.582;2022-10-31T06:37:38;101712.78;;;12.17;100.00
12987;BME280;58897;51.960;5.582;2022-10-31T06:40:05;101706.69;;;12.32;100.00
12987;BME280;58897;51.960;5.582;2022-10-31T06:42:32;101707.22;;;12.18;100.00
12987;BME280;58897;51.960;5.582;2022-10-31T06:44:58;101710.25;;;12.33;100.00
12987;BME280;58897;51.960;5.582;2022-10-31T06:47:24;101713.66;;;12.35;100.00
12987;BME280;58897;51.960;5.582;2022-10-31T06:49:51;101717.81;;;12.29;100.00
12987;BME280;58897;51.960;5.582;2022-10-31T06:52:17;101715.78;;;12.14;100.00
12987;BME280;58897;51.960;5.582;2022-10-31T06:54:43;101704.66;;;12.17;100.00
12987;BME280;58897;51.960;5.582;2022-10-31T06:57:10;101709.06;;;12.18;100.00
12987;BME280;58897;51.960;5.582;2022-10-31T06:59:36;101711.16;;;12.24;100.00
12987;BME280;58897;51.960;5.582;2022-10-31T07:02:03;101710.00;;;12.44;100.00
12987;BME280;58897;51.960;5.582;2022-10-31T07:04:29;101715.69;;;12.51;100.00
12987;BME280;58897;51.960;5.582;2022-10-31T07:06:56;101706.53;;;12.52;100.00
12987;BME280;58897;51.960;5.582;2022-10-31T07:09:22;101715.41;;;12.26;100.00
12987;BME280;58897;51.960;5.582;2022-10-31T07:11:52;101709.94;;;12.54;100.00
12987;BME280;58897;51.960;5.582;2022-10-31T07:14:18;101706.22;;;12.55;100.00
12987;BME280;58897;51.960;5.582;2022-10-31T07:16:49;101713.06;;;12.59;100.00
12987;BME280;58897;51.960;5.582;2022-10-31T07:19:17;101708.91;;;12.72;100.00
12987;BME280;58897;51.960;5.582;2022-10-31T07:21:43;101705.81;;;12.67;100.00
12987;BME280;58897;51.960;5.582;2022-10-31T07:24:09;101705.03;;;12.75;100.00
12987;BME280;58897;51.960;5.582;2022-10-31T07:26:36;101705.88;;;12.75;100.00
12987;BME280;58897;51.960;5.582;2022-10-31T07:29:02;101704.41;;;12.81;100.00
12987;BME280;58897;51.960;5.582;2022-10-31T07:31:29;101711.25;;;12.85;100.00
12987;BME280;58897;51.960;5.582;2022-10-31T07:33:55;101708.25;;;12.96;100.00
12987;BME280;58897;51.960;5.582;2022-10-31T07:36:22;101708.63;;;13.01;100.00
12987;BME280;58897;51.960;5.582;2022-10-31T07:38:49;101712.25;;;12.84;100.00
12987;BME280;58897;51.960;5.582;2022-10-31T07:41:15;101710.75;;;13.07;100.00
12987;BME280;58897;51.960;5.582;2022-10-31T07:43:42;101703.59;;;13.24;100.00
12987;BME280;58897;51.960;5.582;2022-10-31T07:46:08;101711.06;;;13.30;100.00
12987;BME280;58897;51.960;5.582;2022-10-31T07:48:35;101713.34;;;13.34;100.00
12987;BME280;58897;51.960;5.582;2022-10-31T07:51:01;101714.66;;;13.30;100.00
12987;BME280;58897;51.960;5.582;2022-10-31T07:53:27;101721.84;;;13.39;100.00
12987;BME280;58897;51.960;5.582;2022-10-31T07:55:54;101726.06;;;13.68;100.00
12987;BME280;58897;51.960;5.582;2022-10-31T07:58:20;101719.09;;;13.65;100.00
12987;BME280;58897;51.960;5.582;2022-10-31T08:00:47;101718.84;;;13.50;100.00
12987;BME280;58897;51.960;5.582;2022-10-31T08:03:16;101728.28;;;13.72;100.00
12987;BME280;58897;51.960;5.582;2022-10-31T08:05:43;101728.38;;;13.88;100.00
12987;BME280;58897;51.960;5.582;2022-10-31T08:08:12;101733.22;;;13.77;100.00
12987;BME280;58897;51.960;5.582;2022-10-31T08:10:39;101726.19;;;13.92;100.00
12987;BME280;58897;51.960;5.582;2022-10-31T08:13:11;101731.47;;;14.01;100.00
12987;BME280;58897;51.960;5.582;2022-10-31T08:15:38;101735.16;;;13.92;100.00
12987;BME280;58897;51.960;5.582;2022-10-31T08:18:12;101722.44;;;13.93;100.00
12987;BME280;58897;51.960;5.582;2022-10-31T08:20:40;101724.97;;;13.86;100.00
12987;BME280;58897;51.960;5.582;2022-10-31T08:23:09;101729.28;;;14.05;100.00
12987;BME280;58897;51.960;5.582;2022-10-31T08:25:37;101724.56;;;14.73;100.00
12987;BME280;58897;51.960;5.582;2022-10-31T08:28:05;101720.81;;;15.14;100.00
12987;BME280;58897;51.960;5.582;2022-10-31T08:30:34;101717.03;;;15.15;100.00
12987;BME280;58897;51.960;5.582;2022-10-31T08:33:06;101715.34;;;16.78;100.00
12987;BME280;58897;51.960;5.582;2022-10-31T08:35:33;101711.13;;;17.64;95.25
12987;BME280;58897;51.960;5.582;2022-10-31T08:38:00;101711.84;;;15.77;100.00
12987;BME280;58897;51.960;5.582;2022-10-31T08:40:29;101714.50;;;15.30;100.00
12987;BME280;58897;51.960;5.582;2022-10-31T08:42:58;101712.53;;;15.71;100.00
12987;BME280;58897;51.960;5.582;2022-10-31T08:45:25;101703.97;;;17.63;99.59
12987;BME280;58897;51.960;5.582;2022-10-31T08:47:51;101701.91;;;17.13;96.73
12987;BME280;58897;51.960;5.582;2022-10-31T08:50:18;101708.28;;;15.68;100.00
12987;BME280;58897;51.960;5.582;2022-10-31T08:52:44;101706.47;;;15.36;100.00
12987;BME280;58897;51.960;5.582;2022-10-31T08:55:29;101700.66;;;17.68;97.80
12987;BME280;58897;51.960;5.582;2022-10-31T08:57:57;101698.19;;;18.53;90.60
12987;BME280;58897;51.960;5.582;2022-10-31T09:00:24;101685.94;;;19.81;85.80
12987;BME280;58897;51.960;5.582;2022-10-31T09:02:58;101672.66;;;23.45;67.01
12987;BME280;58897;51.960;5.582;2022-10-31T09:05:25;101677.41;;;22.51;70.11
12987;BME280;58897;51.960;5.582;2022-10-31T09:07:55;101678.94;;;22.02;69.99
12987;BME280;58897;51.960;5.582;2022-10-31T09:10:23;101690.44;;;19.26;81.77
12987;BME280;58897;51.960;5.582;2022-10-31T09:13:01;101689.09;;;17.80;89.37
12987;BME280;58897;51.960;5.582;2022-10-31T09:15:30;101685.66;;;16.97;97.29
12987;BME280;58897;51.960;5.582;2022-10-31T09:17:56;101691.00;;;16.23;100.00
12987;BME280;58897;51.960;5.582;2022-10-31T09:20:23;101686.34;;;16.31;100.00
12987;BME280;58897;51.960;5.582;2022-10-31T09:22:57;101678.88;;;16.25;100.00
12987;BME280;58897;51.960;5.582;2022-10-31T09:25:25;101666.25;;;16.24;100.00
12987;BME280;58897;51.960;5.582;2022-10-31T09:27:58;101647.16;;;16.01;100.00
12987;BME280;58897;51.960;5.582;2022-10-31T09:30:28;101661.03;;;15.92;100.00
12987;BME280;58897;51.960;5.582;2022-10-31T09:32:56;101664.44;;;15.86;100.00
12987;BME280;58897;51.960;5.582;2022-10-31T09:35:23;101668.97;;;15.63;100.00
12987;BME280;58897;51.960;5.582;2022-10-31T09:38:14;101665.63;;;15.91;100.00
12987;BME280;58897;51.960;5.582;2022-10-31T09:46:16;101670.16;;;16.60;100.00
12987;BME280;58897;51.960;5.582;2022-10-31T09:49:11;101665.34;;;16.40;100.00
12987;BME280;58897;51.960;5.582;2022-10-31T09:51:58;101655.22;;;15.95;100.00
12987;BME280;58897;51.960;5.582;2022-10-31T09:54:33;101660.63;;;16.03;100.00
12987;BME280;58897;51.960;5.582;2022-10-31T09:57:02;101661.84;;;16.23;100.00
12987;BME280;58897;51.960;5.582;2022-10-31T09:59:38;101652.81;;;16.00;100.00
12987;BME280;58897;51.960;5.582;2022-10-31T10:02:27;101640.53;;;16.27;100.00
12987;BME280;58897;51.960;5.582;2022-10-31T10:04:58;101639.09;;;16.39;100.00
12987;BME280;58897;51.960;5.582;2022-10-31T10:07:46;101643.19;;;16.35;100.00
12987;BME280;58897;51.960;5.582;2022-10-31T10:10:20;101635.91;;;16.27;100.00
12987;BME280;58897;51.960;5.582;2022-10-31T10:13:05;101628.50;;;16.21;100.00
12987;BME280;58897;51.960;5.582;2022-10-31T10:16:03;101634.13;;;15.89;100.00
12987;BME280;58897;51.960;5.582;2022-10-31T10:18:36;101635.41;;;16.01;100.00
12987;BME280;58897;51.960;5.582;2022-10-31T10:21:36;101624.88;;;15.98;100.00
12987;BME280;58897;51.960;5.582;2022-10-31T10:24:27;101629.03;;;15.86;100.00
12987;BME280;58897;51.960;5.582;2022-10-31T10:30:44;101644.34;;;15.56;100.00
12987;BME280;58897;51.960;5.582;2022-10-31T10:33:17;101629.69;;;15.57;100.00
12987;BME280;58897;51.960;5.582;2022-10-31T10:35:47;101623.53;;;15.63;100.00
12987;BME280;58897;51.960;5.582;2022-10-31T10:38:22;101615.22;;;15.57;100.00
12987;BME280;58897;51.960;5.582;2022-10-31T10:40:52;101605.00;;;15.59;100.00
12987;BME280;58897;51.960;5.582;2022-10-31T10:43:28;101605.72;;;15.44;100.00
12987;BME280;58897;51.960;5.582;2022-10-31T10:49:00;101590.94;;;15.78;100.00
12987;BME280;58897;51.960;5.582;2022-10-31T10:51:38;101579.09;;;15.93;100.00
12987;BME280;58897;51.960;5.582;2022-10-31T10:57:29;101578.13;;;15.86;100.00
12987;BME280;58897;51.960;5.582;2022-10-31T11:00:00;101568.44;;;15.53;100.00
12987;BME280;58897;51.960;5.582;2022-10-31T11:02:31;101537.81;;;15.51;100.00
12987;BME280;58897;51.960;5.582;2022-10-31T11:05:00;101530.13;;;15.55;100.00
12987;BME280;58897;51.960;5.582;2022-10-31T11:07:38;101531.03;;;15.47;100.00
12987;BME280;58897;51.960;5.582;2022-10-31T11:10:06;101538.56;;;15.68;100.00
12987;BME280;58897;51.960;5.582;2022-10-31T11:20:38;101525.69;;;16.07;100.00
12987;BME280;58897;51.960;5.582;2022-10-31T11:23:17;101534.22;;;16.04;100.00
12987;BME280;58897;51.960;5.582;2022-10-31T11:25:49;101529.13;;;16.01;100.00
12987;BME280;58897;51.960;5.582;2022-10-31T11:28:16;101524.53;;;16.01;100.00
12987;BME280;58897;51.960;5.582;2022-10-31T11:30:50;101516.94;;;16.12;100.00
12987;BME280;58897;51.960;5.582;2022-10-31T11:33:35;101503.09;;;16.21;100.00
12987;BME280;58897;51.960;5.582;2022-10-31T11:36:14;101499.66;;;16.04;100.00
12987;BME280;58897;51.960;5.582;2022-10-31T11:39:55;101484.31;;;16.26;100.00
12987;BME280;58897;51.960;5.582;2022-10-31T11:42:26;101486.56;;;16.60;100.00
12987;BME280;58897;51.960;5.582;2022-10-31T11:44:54;101486.09;;;16.86;100.00
12987;BME280;58897;51.960;5.582;2022-10-31T11:47:31;101484.09;;;16.80;100.00
12987;BME280;58897;51.960;5.582;2022-10-31T11:50:02;101472.78;;;16.97;100.00
12987;BME280;58897;51.960;5.582;2022-10-31T11:52:38;101470.91;;;16.98;100.00
12987;BME280;58897;51.960;5.582;2022-10-31T11:57:50;101472.22;;;16.87;100.00
12987;BME280;58897;51.960;5.582;2022-10-31T12:00:32;101457.47;;;16.82;100.00
12987;BME280;58897;51.960;5.582;2022-10-31T12:05:49;101435.09;;;16.86;100.00
12987;BME280;58897;51.960;5.582;2022-10-31T12:08:19;101424.72;;;16.96;100.00
12987;BME280;58897;51.960;5.582;2022-10-31T12:17:15;101416.09;;;17.50;100.00
12987;BME280;58897;51.960;5.582;2022-10-31T12:23:06;101396.00;;;17.57;100.00
12987;BME280;58897;51.960;5.582;2022-10-31T12:47:37;101323.56;;;18.17;100.00
12987;BME280;58897;51.960;5.582;2022-10-31T12:58:49;101296.63;;;18.14;100.00
12987;BME280;58897;51.960;5.582;2022-10-31T13:05:16;101292.03;;;17.59;100.00
12987;BME280;58897;51.960;5.582;2022-10-31T13:07:51;101290.25;;;17.51;100.00
12987;BME280;58897;51.960;5.582;2022-10-31T13:10:25;101280.06;;;17.39;100.00
12987;BME280;58897;51.960;5.582;2022-10-31T13:12:58;101282.59;;;17.19;100.00
12987;BME280;58897;51.960;5.582;2022-10-31T13:15:32;101275.63;;;17.38;100.00
12987;BME280;58897;51.960;5.582;2022-10-31T13:18:05;101276.13;;;17.20;100.00
12987;BME280;58897;51.960;5.582;2022-10-31T13:20:42;101265.75;;;17.15;100.00
12987;BME280;58897;51.960;5.582;2022-10-31T13:23:37;101252.47;;;17.06;100.00
12987;BME280;58897;51.960;5.582;2022-10-31T13:26:52;101246.84;;;17.35;100.00
12987;BME280;58897;51.960;5.582;2022-10-31T13:29:25;101240.00;;;17.18;100.00
12987;BME280;58897;51.960;5.582;2022-10-31T13:31:59;101235.22;;;17.26;100.00
12987;BME280;58897;51.960;5.582;2022-10-31T13:34:33;101224.09;;;17.28;100.00
12987;BME280;58897;51.960;5.582;2022-10-31T13:38:46;101227.25;;;17.04;100.00
12987;BME280;58897;51.960;5.582;2022-10-31T13:41:30;101212.28;;;17.21;100.00
12987;BME280;58897;51.960;5.582;2022-10-31T13:44:17;101210.22;;;17.02;100.00
12987;BME280;58897;51.960;5.582;2022-10-31T13:46:45;101209.97;;;17.18;100.00
12987;BME280;58897;51.960;5.582;2022-10-31T13:54:47;101202.56;;;16.91;100.00
12987;BME280;58897;51.960;5.582;2022-10-31T13:57:38;101204.09;;;17.00;100.00
12987;BME280;58897;51.960;5.582;2022-10-31T14:02:49;101189.44;;;17.01;100.00
12987;BME280;58897;51.960;5.582;2022-10-31T14:05:30;101190.06;;;17.03;100.00
12987;BME280;58897;51.960;5.582;2022-10-31T14:08:02;101188.31;;;16.95;100.00
12987;BME280;58897;51.960;5.582;2022-10-31T14:10:38;101180.59;;;16.99;100.00
12987;BME280;58897;51.960;5.582;2022-10-31T14:13:22;101182.47;;;16.98;100.00
12987;BME280;58897;51.960;5.582;2022-10-31T14:15:59;101185.22;;;16.98;100.00
12987;BME280;58897;51.960;5.582;2022-10-31T14:18:37;101171.09;;;16.95;100.00
12987;BME280;58897;51.960;5.582;2022-10-31T14:23:53;101158.66;;;16.86;100.00
12987;BME280;58897;51.960;5.582;2022-10-31T14:28:56;101152.81;;;16.67;100.00
12987;BME280;58897;51.960;5.582;2022-10-31T14:31:27;101141.06;;;16.67;100.00
12987;BME280;58897;51.960;5.582;2022-10-31T14:33:55;101130.00;;;16.75;100.00
12987;BME280;58897;51.960;5.582;2022-10-31T14:36:30;101134.63;;;16.75;100.00
12987;BME280;58897;51.960;5.582;2022-10-31T14:45:08;101131.72;;;16.55;100.00
12987;BME280;58897;51.960;5.582;2022-10-31T14:53:19;101117.97;;;16.48;100.00
12987;BME280;58897;51.960;5.582;2022-10-31T14:55:51;101107.03;;;16.42;100.00
12987;BME280;58897;51.960;5.582;2022-10-31T14:58:44;101110.09;;;16.53;100.00
12987;BME280;58897;51.960;5.582;2022-10-31T15:01:30;101112.72;;;16.47;100.00
12987;BME280;58897;51.960;5.582;2022-10-31T15:04:04;101106.44;;;16.46;100.00
12987;BME280;58897;51.960;5.582;2022-10-31T15:06:55;101104.28;;;16.42;100.00
12987;BME280;58897;51.960;5.582;2022-10-31T15:09:27;101101.47;;;16.35;100.00
12987;BME280;58897;51.960;5.582;2022-10-31T15:11:54;101099.00;;;16.40;100.00
12987;BME280;58897;51.960;5.582;2022-10-31T15:14:28;101095.00;;;16.36;100.00
12987;BME280;58897;51.960;5.582;2022-10-31T15:17:01;101090.97;;;16.32;100.00